createdAt,value
2019-04-11T00:01:40.575Z,8.80
2019-04-11T00:04:06.011Z,8.70
2019-04-11T00:06:35.919Z,7.17
2019-04-11T00:09:10.245Z,7.67
2019-04-11T00:11:41.779Z,8.90
2019-04-11T00:14:13.730Z,8.13
2019-04-11T00:16:43.576Z,7.53
2019-04-11T00:19:13.672Z,5.07
2019-04-11T00:21:43.339Z,7.43
2019-04-11T00:24:12.981Z,9.13
2019-04-11T00:26:42.564Z,6.73
2019-04-11T00:29:12.221Z,7.40
2019-04-11T00:31:43.091Z,8.53
2019-04-11T00:34:13.039Z,8.23
2019-04-11T00:36:42.823Z,7.67
2019-04-11T00:39:13.305Z,6.93
2019-04-11T00:41:42.949Z,8.50
2019-04-11T00:44:12.634Z,8.00
2019-04-11T00:46:42.628Z,7.90
2019-04-11T00:49:12.390Z,7.90
2019-04-11T00:51:42.342Z,7.93
2019-04-11T00:54:12.181Z,7.43
2019-04-11T00:56:42.280Z,7.40
2019-04-11T00:59:12.026Z,7.37
2019-04-11T01:01:41.647Z,7.87
2019-04-11T01:04:11.687Z,7.80
2019-04-11T01:06:41.095Z,7.30
2019-04-11T01:09:11.103Z,8.17
2019-04-11T01:11:40.608Z,8.17
2019-04-11T01:14:10.095Z,8.10
2019-04-11T01:16:45.080Z,5.23
2019-04-11T01:19:14.583Z,7.20
2019-04-11T01:21:44.520Z,7.77
2019-04-11T01:24:14.193Z,7.90
2019-04-11T01:26:43.714Z,7.20
2019-04-11T01:29:13.643Z,8.17
2019-04-11T01:31:44.217Z,6.47
2019-04-11T01:34:13.678Z,7.33
2019-04-11T01:36:43.399Z,8.30
2019-04-11T01:39:35.107Z,7.87
2019-04-11T01:42:04.879Z,7.07
2019-04-11T01:44:34.380Z,7.97
2019-04-11T01:47:06.627Z,7.87
2019-04-11T01:49:36.520Z,9.07
2019-04-11T01:52:06.504Z,6.40
2019-04-11T01:54:36.064Z,7.80
2019-04-11T01:57:05.590Z,8.90
2019-04-11T01:59:35.448Z,8.17
2019-04-11T02:02:30.430Z,7.97
2019-04-11T02:05:10.517Z,7.30
2019-04-11T02:07:39.982Z,8.33
2019-04-11T02:10:10.568Z,7.83
2019-04-11T02:12:40.129Z,7.60
2019-04-11T02:15:10.298Z,8.50
2019-04-11T02:17:39.800Z,9.13
2019-04-11T02:20:09.549Z,8.63
2019-04-11T02:23:02.545Z,9.20
2019-04-11T02:25:47.068Z,9.47
2019-04-11T02:28:17.351Z,9.93
2019-04-11T02:30:51.366Z,10.43
2019-04-11T02:33:21.807Z,8.53
2019-04-11T02:35:51.983Z,10.40
2019-04-11T02:38:23.523Z,10.23
2019-04-11T02:40:54.480Z,11.10
2019-04-11T02:43:25.626Z,10.77
2019-04-11T02:46:08.811Z,9.40
2019-04-11T02:48:26.906Z,10.70
2019-04-11T02:50:58.060Z,9.57
2019-04-11T02:53:29.924Z,11.77
2019-04-11T02:56:00.734Z,11.10
2019-04-11T02:58:31.779Z,10.53
2019-04-11T03:01:05.052Z,9.80
2019-04-11T03:03:34.113Z,10.10
2019-04-11T03:06:04.447Z,10.70
2019-04-11T03:08:36.358Z,11.13
2019-04-11T03:11:05.439Z,9.30
2019-04-11T03:13:38.078Z,9.43
2019-04-11T03:16:23.734Z,9.73
2019-04-11T03:18:55.014Z,11.10
2019-04-11T03:21:14.616Z,8.43
2019-04-11T03:23:41.759Z,10.30
2019-04-11T03:26:14.020Z,8.53
2019-04-11T03:28:47.415Z,9.70
2019-04-11T03:31:53.249Z,10.57
2019-04-11T03:34:53.427Z,10.83
2019-04-11T03:39:11.917Z,10.37
2019-04-11T03:41:32.745Z,12.07
2019-04-11T03:44:01.753Z,10.97
2019-04-11T03:46:37.645Z,11.77
2019-04-11T03:49:03.469Z,10.03
2019-04-11T03:51:25.755Z,12.03
2019-04-11T03:53:56.774Z,10.33
2019-04-11T03:56:26.806Z,10.70
2019-04-11T03:58:57.809Z,11.53
2019-04-11T04:01:29.624Z,10.97
2019-04-11T04:04:00.563Z,10.70
2019-04-11T04:06:31.066Z,11.10
2019-04-11T04:09:02.674Z,11.67
2019-04-11T04:11:34.253Z,11.60
2019-04-11T04:14:14.378Z,11.47
2019-04-11T04:17:12.438Z,11.90
2019-04-11T04:19:50.006Z,9.60
2019-04-11T04:22:27.098Z,10.30
2019-04-11T04:24:58.754Z,8.23
2019-04-11T04:27:30.346Z,10.47
2019-04-11T04:30:01.586Z,11.67
2019-04-11T04:32:32.442Z,10.80
2019-04-11T04:35:02.024Z,11.17
2019-04-11T04:37:34.089Z,9.67
2019-04-11T04:40:23.287Z,10.63
2019-04-11T04:42:43.643Z,9.00
2019-04-11T04:45:10.130Z,10.60
2019-04-11T04:47:47.096Z,7.47
2019-04-11T04:50:13.415Z,9.63
2019-04-11T04:52:45.224Z,8.17
2019-04-11T04:55:14.694Z,8.67
2019-04-11T04:57:44.982Z,9.70
2019-04-11T05:00:16.736Z,10.47
2019-04-11T05:02:48.231Z,10.10
2019-04-11T05:05:17.895Z,8.43
2019-04-11T05:07:47.815Z,10.13
2019-04-11T05:10:20.232Z,10.07
2019-04-11T05:12:51.261Z,10.67
2019-04-11T05:15:20.976Z,9.97
2019-04-11T05:17:51.262Z,9.30
2019-04-11T05:20:23.895Z,8.20
2019-04-11T05:22:53.644Z,10.33
2019-04-11T05:25:23.270Z,7.60
2019-04-11T05:27:53.907Z,10.83
2019-04-11T05:30:25.240Z,10.87
2019-04-11T05:32:55.764Z,11.30
2019-04-11T05:35:26.955Z,12.10
2019-04-11T05:38:12.608Z,11.00
2019-04-11T05:41:12.224Z,12.17
2019-04-11T05:44:25.223Z,11.30
2019-04-11T05:50:44.707Z,11.90
2019-04-11T05:53:21.470Z,10.80
2019-04-11T05:59:53.440Z,11.70
2019-04-11T06:03:21.779Z,11.27
2019-04-11T06:07:03.245Z,11.07
2019-04-11T06:09:56.770Z,16.83
2019-04-11T06:13:16.418Z,12.27
2019-04-11T06:20:06.050Z,11.50
2019-04-11T06:23:39.330Z,9.17
2019-04-11T06:36:45.295Z,12.07
2019-04-11T06:39:41.755Z,10.97
2019-04-11T06:43:06.177Z,10.20
2019-04-11T06:46:17.154Z,10.00
2019-04-11T06:49:25.201Z,10.87
2019-04-11T06:52:26.600Z,11.30
2019-04-11T06:55:23.473Z,9.97
2019-04-11T06:58:21.492Z,9.03
2019-04-11T07:00:57.797Z,9.20
2019-04-11T07:06:44.269Z,7.57
2019-04-11T07:10:02.247Z,8.20
2019-04-11T07:15:46.416Z,9.50
2019-04-11T07:19:00.695Z,9.50
2019-04-11T07:21:37.781Z,8.60
2019-04-11T07:24:27.899Z,9.23
2019-04-11T07:27:12.181Z,8.63
2019-04-11T07:30:13.482Z,7.63
2019-04-11T07:32:53.251Z,9.57
2019-04-11T07:35:52.898Z,9.93
2019-04-11T07:38:32.073Z,7.40
2019-04-11T07:41:17.417Z,9.27
2019-04-11T07:43:52.049Z,9.47
2019-04-11T07:46:44.052Z,10.50
2019-04-11T07:49:24.365Z,7.93
2019-04-11T07:52:00.827Z,8.97
2019-04-11T07:54:31.615Z,9.17
2019-04-11T07:57:19.312Z,9.50
2019-04-11T08:00:12.790Z,8.77
2019-04-11T08:03:25.547Z,8.33
2019-04-11T08:06:24.359Z,9.50
2019-04-11T08:09:39.624Z,9.80
2019-04-11T08:12:25.992Z,8.60
2019-04-11T08:15:48.076Z,7.97
2019-04-11T08:47:13.184Z,10.87
2019-04-11T08:49:50.076Z,8.63
2019-04-11T08:53:42.729Z,6.33
2019-04-11T09:00:55.746Z,7.43
2019-04-11T09:26:43.012Z,8.90
2019-04-11T10:45:55.268Z,10.90
2019-04-11T11:03:27.860Z,10.30
2019-04-11T11:09:22.360Z,9.87
2019-04-11T11:12:16.957Z,10.30
2019-04-11T11:15:04.307Z,11.20
2019-04-11T11:18:32.196Z,11.53
2019-04-11T11:20:43.002Z,9.43
2019-04-11T11:35:01.194Z,10.00
2019-04-11T11:37:59.719Z,9.93
2019-04-11T11:40:48.026Z,9.40
2019-04-11T11:44:11.852Z,10.37
2019-04-11T11:51:25.634Z,9.83
2019-04-11T11:54:17.755Z,10.20
2019-04-11T11:56:54.077Z,10.67
2019-04-11T11:59:36.518Z,10.60
2019-04-11T12:02:17.381Z,9.90
2019-04-11T12:05:08.892Z,9.83
2019-04-11T12:07:41.007Z,10.33
2019-04-11T12:10:41.661Z,9.57
2019-04-11T12:13:32.624Z,9.37
2019-04-11T12:16:34.554Z,10.83
2019-04-11T12:19:23.098Z,10.13
2019-04-11T12:21:56.713Z,9.83
2019-04-11T12:24:56.518Z,9.70
2019-04-11T12:27:46.077Z,10.80
2019-04-11T12:30:37.959Z,10.23
2019-04-11T12:33:37.473Z,8.50
2019-04-11T12:36:09.830Z,10.27
2019-04-11T12:39:06.353Z,9.77
2019-04-11T12:41:59.404Z,11.10
2019-04-11T12:44:45.683Z,10.40
2019-04-11T12:47:20.701Z,11.00
2019-04-11T12:50:17.269Z,10.97
2019-04-11T12:52:59.679Z,10.37
2019-04-11T12:55:34.468Z,9.80
2019-04-11T12:58:23.898Z,9.00
2019-04-11T13:01:18.387Z,9.07
2019-04-11T13:04:05.674Z,10.10
2019-04-11T13:06:52.966Z,8.47
2019-04-11T13:09:31.611Z,8.93
2019-04-11T13:12:01.832Z,9.77
2019-04-11T13:14:38.682Z,10.00
2019-04-11T13:17:09.910Z,9.47
2019-04-11T13:20:04.823Z,9.60
2019-04-11T13:22:32.975Z,9.23
2019-04-11T13:25:19.804Z,9.73
2019-04-11T13:27:52.811Z,9.47
2019-04-11T13:30:59.570Z,9.27
2019-04-11T13:33:31.314Z,8.67
2019-04-11T13:36:13.799Z,9.43
2019-04-11T13:38:47.983Z,9.37
2019-04-11T13:41:34.974Z,9.57
2019-04-11T13:44:22.902Z,8.63
2019-04-11T13:47:14.108Z,8.43
2019-04-11T13:50:04.149Z,9.53
2019-04-11T13:53:12.735Z,8.57
2019-04-11T13:55:43.111Z,8.83
2019-04-11T13:58:31.343Z,9.33
2019-04-11T14:01:04.812Z,8.37
2019-04-11T14:03:59.965Z,8.70
2019-04-11T14:06:31.448Z,8.83
2019-04-11T14:09:22.760Z,8.40
2019-04-11T14:12:05.056Z,7.37
2019-04-11T14:14:57.038Z,7.47
2019-04-11T14:17:44.411Z,8.63
2019-04-11T14:20:29.030Z,8.60
2019-04-11T14:23:14.800Z,8.97
2019-04-11T14:26:03.463Z,8.50
2019-04-11T14:28:36.882Z,8.60
2019-04-11T14:31:28.358Z,7.90
2019-04-11T14:34:04.923Z,8.27
2019-04-11T14:36:56.438Z,8.33
2019-04-11T14:39:27.800Z,8.50
2019-04-11T14:42:15.189Z,9.07
2019-04-11T14:44:44.855Z,7.10
2019-04-11T14:47:48.646Z,8.17
2019-04-11T14:50:19.910Z,7.77
2019-04-11T14:53:17.408Z,8.03
2019-04-11T14:55:48.976Z,8.40
2019-04-11T14:58:41.017Z,8.20
2019-04-11T15:01:14.311Z,7.70
2019-04-11T15:04:08.670Z,8.67
2019-04-11T15:06:45.281Z,8.50
2019-04-11T15:09:33.986Z,7.50
2019-04-11T15:12:17.935Z,8.63
2019-04-11T15:15:22.030Z,7.87
2019-04-11T15:17:55.843Z,7.23
2019-04-11T15:20:54.149Z,7.90
2019-04-11T15:23:20.150Z,8.43
2019-04-11T15:26:08.835Z,7.20
2019-04-11T15:28:54.703Z,7.53
2019-04-11T15:32:01.715Z,8.97
2019-04-11T15:34:41.571Z,8.80
2019-04-11T15:37:36.254Z,8.40
2019-04-11T15:40:29.671Z,7.70
2019-04-11T15:43:16.751Z,8.97
2019-04-11T15:45:48.878Z,7.67
2019-04-11T15:48:39.222Z,7.50
2019-04-11T15:51:22.604Z,7.93
2019-04-11T15:54:26.470Z,7.77
2019-04-11T15:57:12.684Z,9.33
2019-04-11T16:00:06.209Z,8.47
2019-04-11T16:02:54.372Z,8.27
2019-04-11T16:05:41.180Z,7.83
2019-04-11T16:08:30.783Z,8.73
2019-04-11T16:11:22.152Z,8.33
2019-04-11T16:14:09.087Z,7.77
2019-04-11T16:16:53.889Z,7.63
2019-04-11T16:19:48.588Z,6.80
2019-04-11T16:22:36.105Z,7.67
2019-04-11T16:25:10.507Z,7.40
2019-04-11T16:28:08.237Z,6.70
2019-04-11T16:30:40.570Z,7.73
2019-04-11T16:33:46.953Z,7.20
2019-04-11T16:36:22.492Z,7.00
2019-04-11T16:39:09.875Z,7.77
2019-04-11T16:42:13.715Z,7.03
2019-04-11T16:45:03.886Z,7.10
2019-04-11T16:47:56.290Z,7.43
2019-04-11T16:50:26.299Z,7.97
2019-04-11T16:52:55.865Z,7.43
2019-04-11T16:55:25.559Z,7.37
2019-04-11T16:57:55.100Z,7.90
2019-04-11T17:00:24.595Z,7.00
2019-04-11T17:02:55.036Z,6.70
2019-04-11T17:05:28.118Z,7.03
2019-04-11T17:08:15.174Z,7.77
2019-04-11T17:11:30.779Z,8.00
2019-04-11T17:14:27.668Z,7.83
2019-04-11T17:16:48.218Z,7.03
2019-04-11T17:19:18.191Z,6.50
2019-04-11T17:21:50.959Z,6.80
2019-04-11T17:24:20.636Z,7.93
2019-04-11T17:26:52.420Z,7.87
2019-04-11T17:29:24.733Z,8.20
2019-04-11T17:31:56.078Z,8.50
2019-04-11T17:34:26.293Z,8.00
2019-04-11T17:36:55.982Z,7.27
2019-04-11T17:39:28.883Z,8.20
2019-04-11T17:42:00.319Z,8.20
2019-04-11T17:44:30.273Z,8.47
2019-04-11T17:46:59.978Z,8.77
2019-04-11T17:49:29.652Z,8.43
2019-04-11T17:51:59.248Z,7.73
2019-04-11T17:54:29.891Z,7.10
2019-04-11T17:56:59.476Z,7.07
2019-04-11T17:59:29.176Z,7.37
2019-04-11T18:01:58.795Z,7.57
2019-04-11T18:04:28.918Z,6.90
2019-04-11T18:06:58.453Z,7.30
2019-04-11T18:09:35.333Z,8.23
2019-04-11T18:12:05.471Z,8.33
2019-04-11T18:14:35.080Z,7.87
2019-04-11T18:17:04.954Z,7.87
2019-04-11T18:19:36.206Z,8.90
2019-04-11T18:22:08.541Z,7.80
2019-04-11T18:24:39.144Z,9.47
2019-04-11T18:27:08.836Z,8.10
2019-04-11T18:29:38.473Z,10.10
2019-04-11T18:32:08.633Z,7.90
2019-04-11T18:34:38.303Z,8.77
2019-04-11T18:37:08.024Z,8.97
2019-04-11T18:39:37.709Z,9.80
2019-04-11T18:42:10.058Z,11.10
2019-04-11T18:44:39.810Z,10.60
2019-04-11T18:47:11.905Z,10.80
2019-04-11T18:49:44.936Z,9.93
2019-04-11T18:52:29.027Z,9.27
2019-04-11T18:55:10.609Z,9.97
2019-04-11T18:57:47.330Z,10.83
2019-04-11T19:00:20.201Z,10.07
2019-04-11T19:02:50.244Z,9.77
2019-04-11T19:05:28.647Z,10.93
2019-04-11T19:07:58.859Z,10.73
2019-04-11T19:10:45.813Z,10.60
2019-04-11T19:13:17.595Z,9.37
2019-04-11T19:15:50.966Z,9.20
2019-04-11T19:18:30.567Z,8.77
2019-04-11T19:20:57.850Z,9.07
2019-04-11T19:23:27.611Z,9.43
2019-04-11T19:25:57.265Z,9.37
2019-04-11T19:28:27.247Z,9.53
2019-04-11T19:31:14.667Z,11.17
2019-04-11T19:33:35.725Z,10.70
2019-04-11T19:36:06.733Z,9.83
2019-04-11T19:38:36.937Z,10.60
2019-04-11T19:41:06.665Z,10.43
2019-04-11T19:43:41.798Z,9.77
2019-04-11T19:46:11.509Z,9.03
2019-04-11T19:48:41.324Z,10.17
2019-04-11T19:51:11.166Z,10.37
2019-04-11T19:53:40.789Z,9.07
2019-04-11T19:56:25.269Z,8.93
2019-04-11T19:58:55.013Z,7.77
2019-04-11T20:01:27.262Z,8.93
2019-04-11T20:03:56.904Z,8.63
2019-04-11T20:06:26.624Z,9.67
2019-04-11T20:08:56.341Z,10.07
2019-04-11T20:11:26.121Z,9.47
2019-04-11T20:13:56.039Z,9.70
2019-04-11T20:16:28.852Z,8.90
2019-04-11T20:19:00.897Z,9.03
2019-04-11T20:21:38.456Z,8.60
2019-04-11T20:24:14.027Z,8.87
2019-04-11T20:27:00.705Z,8.87
2019-04-11T20:29:33.729Z,10.23
2019-04-11T20:32:17.067Z,9.13
2019-04-11T20:34:46.774Z,9.07
2019-04-11T20:37:16.569Z,9.30
2019-04-11T20:39:47.470Z,9.33
2019-04-11T20:42:17.420Z,9.07
2019-04-11T20:44:47.156Z,9.43
2019-04-11T20:47:16.986Z,8.67
2019-04-11T20:49:54.915Z,9.13
2019-04-11T20:52:24.828Z,8.70
2019-04-11T20:55:01.805Z,8.67
2019-04-11T20:57:31.508Z,9.70
2019-04-11T21:00:04.729Z,9.57
2019-04-11T21:02:37.604Z,9.80
2019-04-11T21:05:07.288Z,10.77
2019-04-11T21:07:39.069Z,10.07
2019-04-11T21:10:08.464Z,9.60
2019-04-11T21:12:38.026Z,9.73
2019-04-11T21:15:08.077Z,9.50
2019-04-11T21:17:38.452Z,9.57
2019-04-11T21:20:09.971Z,9.17
2019-04-11T21:22:41.423Z,9.73
2019-04-11T21:25:11.436Z,10.57
2019-04-11T21:27:41.508Z,9.03
2019-04-11T21:30:12.191Z,10.10
2019-04-11T21:32:42.452Z,10.13
2019-04-11T21:35:15.733Z,10.07
2019-04-11T21:37:47.106Z,9.00
2019-04-11T21:40:16.709Z,10.53
2019-04-11T21:42:47.841Z,8.17
2019-04-11T21:45:17.353Z,9.90
2019-04-11T21:47:46.978Z,10.83
2019-04-11T21:50:16.657Z,10.00
2019-04-11T21:52:46.268Z,11.27
2019-04-11T21:55:16.345Z,9.97
2019-04-11T21:57:48.750Z,8.33
2019-04-11T22:00:33.658Z,9.67
2019-04-11T22:03:03.469Z,11.00
2019-04-11T22:05:36.206Z,9.80
2019-04-11T22:08:05.978Z,10.77
2019-04-11T22:10:40.063Z,11.10
2019-04-11T22:13:09.771Z,10.50
2019-04-11T22:15:42.121Z,10.23
2019-04-11T22:18:09.516Z,10.10
2019-04-11T22:20:39.064Z,9.93
2019-04-11T22:23:08.725Z,10.10
2019-04-11T22:25:40.832Z,9.47
2019-04-11T22:28:12.319Z,10.20
2019-04-11T22:30:41.937Z,10.20
2019-04-11T22:33:19.065Z,10.03
2019-04-11T22:35:48.649Z,9.17
2019-04-11T22:38:18.274Z,8.87
2019-04-11T22:40:47.864Z,9.13
2019-04-11T22:43:24.465Z,9.93
2019-04-11T22:45:48.651Z,9.37
2019-04-11T22:48:18.343Z,9.43
2019-04-11T22:50:48.019Z,9.97
2019-04-11T22:53:17.657Z,10.17
2019-04-11T22:55:47.283Z,9.90
2019-04-11T22:58:16.870Z,10.13
2019-04-11T23:00:46.450Z,10.17
2019-04-11T23:03:29.439Z,9.10
2019-04-11T23:05:59.032Z,8.50
2019-04-11T23:08:28.695Z,10.07
2019-04-11T23:10:58.309Z,9.23
2019-04-11T23:13:27.876Z,9.63
2019-04-11T23:15:57.494Z,9.23
2019-04-11T23:18:27.114Z,7.97
2019-04-11T23:20:56.653Z,9.37
2019-04-11T23:23:26.220Z,8.97
2019-04-11T23:25:55.843Z,10.90
2019-04-11T23:28:25.469Z,10.10
2019-04-11T23:30:55.116Z,8.50
2019-04-11T23:33:24.837Z,10.20
2019-04-11T23:35:54.478Z,10.97
2019-04-11T23:38:24.605Z,10.13
2019-04-11T23:40:54.135Z,10.47
2019-04-11T23:43:23.678Z,10.00
2019-04-11T23:45:53.580Z,9.93
2019-04-11T23:48:24.059Z,10.07
2019-04-11T23:50:55.182Z,9.60
2019-04-11T23:53:28.108Z,9.83
2019-04-11T23:55:59.899Z,9.80
2019-04-11T23:58:31.832Z,10.53
